Time,TemperatureF,DewpointF,PressureIn,WindDirection,WindDirectionDegrees,WindSpeedMPH,WindSpeedGustMPH,Humidity,HourlyPrecipIn,Conditions,Clouds,dailyrainin,SoftwareType,DateUTC
2013-04-22 00:07:00,55.3,47.0,29.94,SSE,166,0.0,3.0,73,0.00,,,0.00,weatherlink.com 1.10,2013-04-22 07:07:00,
2013-04-22 00:22:00,55.6,47.0,29.94,ESE,115,0.0,0.0,72,0.00,,,0.00,weatherlink.com 1.10,2013-04-22 07:22:00,
2013-04-22 00:37:00,57.9,46.0,29.94,ESE,115,0.0,2.0,65,0.00,,,0.00,weatherlink.com 1.10,2013-04-22 07:37:00,
2013-04-22 00:52:00,58.0,46.0,29.93,ESE,114,0.0,1.0,64,0.00,,,0.00,weatherlink.com 1.10,2013-04-22 07:52:00,
2013-04-22 01:07:00,56.4,46.0,29.93,ESE,116,0.0,1.0,69,0.00,,,0.00,weatherlink.com 1.10,2013-04-22 08:07:00,
2013-04-22 01:22:00,55.0,47.0,29.93,SSW,211,0.0,1.0,75,0.00,,,0.00,weatherlink.com 1.10,2013-04-22 08:22:00,
2013-04-22 01:37:00,54.1,47.0,29.93,SW,219,0.0,1.0,78,0.00,,,0.00,weatherlink.com 1.10,2013-04-22 08:37:00,
2013-04-22 01:52:00,55.1,45.0,29.92,ENE,58,2.0,3.0,69,0.00,,,0.00,weatherlink.com 1.10,2013-04-22 08:52:00,
2013-04-22 02:07:00,59.0,44.0,29.92,NE,56,0.0,1.0,59,0.00,,,0.00,weatherlink.com 1.10,2013-04-22 09:07:00,
2013-04-22 02:22:00,59.9,43.0,29.92,East,87,2.0,2.0,54,0.00,,,0.00,weatherlink.com 1.10,2013-04-22 09:22:00,
2013-04-22 02:37:00,60.0,43.0,29.92,NE,51,3.0,4.0,53,0.00,,,0.00,weatherlink.com 1.10,2013-04-22 09:37:00,
2013-04-22 02:52:00,61.4,42.0,29.92,East,86,3.0,3.0,50,0.00,,,0.00,weatherlink.com 1.10,2013-04-22 09:52:00,
2013-04-22 03:07:00,62.1,43.0,29.91,East,96,2.0,3.0,50,0.00,,,0.00,weatherlink.com 1.10,2013-04-22 10:07:00,
2013-04-22 03:23:00,61.9,43.0,29.91,East,99,3.0,3.0,51,0.00,,,0.00,weatherlink.com 1.10,2013-04-22 10:23:00,
2013-04-22 03:38:00,60.8,43.0,29.91,East,84,0.0,2.0,53,0.00,,,0.00,weatherlink.com 1.10,2013-04-22 10:38:00,
2013-04-22 03:53:00,60.6,44.0,29.91,East,96,0.0,0.0,54,0.00,,,0.00,weatherlink.com 1.10,2013-04-22 10:53:00,
2013-04-22 04:08:00,59.8,43.0,29.91,East,86,0.0,0.0,55,0.00,,,0.00,weatherlink.com 1.10,2013-04-22 11:08:00,
2013-04-22 04:23:00,60.7,43.0,29.91,NE,52,2.0,3.0,53,0.00,,,0.00,weatherlink.com 1.10,2013-04-22 11:23:00,
2013-04-22 04:38:00,61.5,43.0,29.91,East,81,1.0,2.0,52,0.00,,,0.00,weatherlink.com 1.10,2013-04-22 11:38:00,
2013-04-22 04:53:00,60.3,44.0,29.91,NE,51,2.0,2.0,56,0.00,,,0.00,weatherlink.com 1.10,2013-04-22 11:53:00,
2013-04-22 05:08:00,60.8,46.0,29.91,East,89,0.0,1.0,58,0.00,,,0.00,weatherlink.com 1.10,2013-04-22 12:08:00,
2013-04-22 05:23:00,60.4,46.0,29.91,East,83,0.0,2.0,59,0.00,,,0.00,weatherlink.com 1.10,2013-04-22 12:23:00,
2013-04-22 05:38:00,60.2,46.0,29.91,ESE,103,0.0,2.0,60,0.00,,,0.00,weatherlink.com 1.10,2013-04-22 12:38:00,
2013-04-22 05:53:00,60.0,46.0,29.91,East,96,0.0,0.0,61,0.00,,,0.00,weatherlink.com 1.10,2013-04-22 12:53:00,
2013-04-22 06:08:00,59.5,46.0,29.91,East,96,0.0,0.0,61,0.00,,,0.00,weatherlink.com 1.10,2013-04-22 13:08:00,
2013-04-22 06:23:00,58.4,46.0,29.91,East,96,0.0,0.0,64,0.00,,,0.00,weatherlink.com 1.10,2013-04-22 13:23:00,
2013-04-22 06:53:00,58.3,46.0,29.92,ESE,103,0.0,0.0,65,0.00,,,0.00,weatherlink.com 1.10,2013-04-22 13:53:00,
2013-04-22 07:08:00,60.5,47.0,29.92,East,94,0.0,1.0,62,0.00,,,0.00,weatherlink.com 1.10,2013-04-22 14:08:00,
2013-04-22 07:23:00,61.4,47.0,29.93,ESE,123,0.0,1.0,59,0.00,,,0.00,weatherlink.com 1.10,2013-04-22 14:23:00,
2013-04-22 07:38:00,61.9,47.0,29.93,SSE,167,0.0,0.0,58,0.00,,,0.00,weatherlink.com 1.10,2013-04-22 14:38:00,
2013-04-22 07:53:00,64.4,48.0,29.94,SSE,167,0.0,0.0,56,0.00,,,0.00,weatherlink.com 1.10,2013-04-22 14:53:00,
2013-04-22 08:08:00,65.4,49.0,29.94,SSE,165,0.0,0.0,55,0.00,,,0.00,weatherlink.com 1.10,2013-04-22 15:08:00,
2013-04-22 08:23:00,65.8,49.0,29.95,South,173,0.0,0.0,56,0.00,,,0.00,weatherlink.com 1.10,2013-04-22 15:23:00,
2013-04-22 08:38:00,68.4,50.0,29.95,South,177,0.0,0.0,52,0.00,,,0.00,weatherlink.com 1.10,2013-04-22 15:38:00,
2013-04-22 08:53:00,67.8,50.0,29.95,SW,215,0.0,0.0,53,0.00,,,0.00,weatherlink.com 1.10,2013-04-22 15:53:00,
2013-04-22 09:08:00,70.5,50.0,29.95,SE,128,2.0,4.0,48,0.00,,,0.00,weatherlink.com 1.10,2013-04-22 16:08:00,
2013-04-22 09:23:00,71.4,48.0,29.95,South,176,2.0,4.0,44,0.00,,,0.00,weatherlink.com 1.10,2013-04-22 16:23:00,
2013-04-22 09:38:00,72.1,49.0,29.94,SW,228,1.0,4.0,44,0.00,,,0.00,weatherlink.com 1.10,2013-04-22 16:38:00,
2013-04-22 09:53:00,72.4,48.0,29.95,SW,235,0.0,5.0,42,0.00,,,0.00,weatherlink.com 1.10,2013-04-22 16:53:00,
2013-04-22 10:08:00,72.2,48.0,29.95,WSW,252,3.0,5.0,42,0.00,,,0.00,weatherlink.com 1.10,2013-04-22 17:08:00,
2013-04-22 10:23:00,73.1,48.0,29.95,SSW,207,3.0,4.0,41,0.00,,,0.00,weatherlink.com 1.10,2013-04-22 17:23:00,
2013-04-22 10:38:00,73.1,48.0,29.95,SW,224,2.0,5.0,41,0.00,,,0.00,weatherlink.com 1.10,2013-04-22 17:38:00,
2013-04-22 10:53:00,74.8,48.0,29.95,WSW,242,5.0,5.0,39,0.00,,,0.00,weatherlink.com 1.10,2013-04-22 17:53:00,
2013-04-22 11:08:00,75.8,49.0,29.95,West,272,1.0,5.0,39,0.00,,,0.00,weatherlink.com 1.10,2013-04-22 18:08:00,
2013-04-22 11:23:00,77.3,46.0,29.94,NNW,333,3.0,5.0,33,0.00,,,0.00,weatherlink.com 1.10,2013-04-22 18:23:00,
2013-04-22 11:38:00,78.2,44.0,29.94,NNW,337,1.0,7.0,30,0.00,,,0.00,weatherlink.com 1.10,2013-04-22 18:38:00,
2013-04-22 11:53:00,80.2,44.0,29.94,NW,308,2.0,9.0,28,0.00,,,0.00,weatherlink.com 1.10,2013-04-22 18:53:00,
2013-04-22 12:09:00,80.8,43.0,29.93,NNW,327,5.0,8.0,26,0.00,,,0.00,weatherlink.com 1.10,2013-04-22 19:09:00,
2013-04-22 12:23:00,81.6,43.0,29.92,NE,53,1.0,8.0,25,0.00,,,0.00,weatherlink.com 1.10,2013-04-22 19:23:00,
2013-04-22 12:39:00,81.9,42.0,29.91,ENE,57,2.0,7.0,24,0.00,,,0.00,weatherlink.com 1.10,2013-04-22 19:39:00,
2013-04-22 12:54:00,83.0,40.0,29.91,NE,36,3.0,7.0,22,0.00,,,0.00,weatherlink.com 1.10,2013-04-22 19:54:00,
2013-04-22 13:09:00,84.0,39.0,29.90,NNE,20,3.0,7.0,20,0.00,,,0.00,weatherlink.com 1.10,2013-04-22 20:09:00,
2013-04-22 13:24:00,83.4,50.0,29.90,SSE,148,2.0,5.0,31,0.00,,,0.00,weatherlink.com 1.10,2013-04-22 20:24:00,
2013-04-22 13:39:00,83.5,47.0,29.89,SE,143,2.0,6.0,28,0.00,,,0.00,weatherlink.com 1.10,2013-04-22 20:39:00,
2013-04-22 13:54:00,83.9,48.0,29.89,SSW,200,5.0,10.0,29,0.00,,,0.00,weatherlink.com 1.10,2013-04-22 20:54:00,
2013-04-22 14:09:00,83.5,47.0,29.88,SW,222,4.0,8.0,28,0.00,,,0.00,weatherlink.com 1.10,2013-04-22 21:09:00,
2013-04-22 14:24:00,82.4,49.0,29.88,West,266,3.0,10.0,31,0.00,,,0.00,weatherlink.com 1.10,2013-04-22 21:24:00,
2013-04-22 14:39:00,80.6,50.0,29.88,WSW,245,4.0,10.0,34,0.00,,,0.00,weatherlink.com 1.10,2013-04-22 21:39:00,
2013-04-22 14:54:00,78.2,50.0,29.87,South,186,4.0,9.0,38,0.00,,,0.00,weatherlink.com 1.10,2013-04-22 21:54:00,
2013-04-22 15:09:00,77.4,49.0,29.87,SSE,158,8.0,12.0,37,0.00,,,0.00,weatherlink.com 1.10,2013-04-22 22:09:00,
2013-04-22 15:24:00,76.4,51.0,29.86,South,191,3.0,11.0,41,0.00,,,0.00,weatherlink.com 1.10,2013-04-22 22:24:00,
2013-04-22 15:39:00,74.7,49.0,29.86,SSW,196,3.0,12.0,41,0.00,,,0.00,weatherlink.com 1.10,2013-04-22 22:39:00,
2013-04-22 15:54:00,73.0,50.0,29.85,South,170,4.0,13.0,45,0.00,,,0.00,weatherlink.com 1.10,2013-04-22 22:54:00,
2013-04-22 16:09:00,73.3,51.0,29.85,SSW,198,5.0,11.0,46,0.00,,,0.00,weatherlink.com 1.10,2013-04-22 23:09:00,
2013-04-22 16:24:00,72.5,52.0,29.84,West,277,5.0,9.0,48,0.00,,,0.00,weatherlink.com 1.10,2013-04-22 23:24:00,
2013-04-22 16:39:00,71.2,50.0,29.84,South,181,3.0,11.0,48,0.00,,,0.00,weatherlink.com 1.10,2013-04-22 23:39:00,
2013-04-22 16:54:00,71.6,51.0,29.84,SSW,213,6.0,10.0,49,0.00,,,0.00,weatherlink.com 1.10,2013-04-22 23:54:00,
2013-04-22 17:10:00,71.8,50.0,29.84,SW,219,5.0,13.0,47,0.00,,,0.00,weatherlink.com 1.10,2013-04-23 00:10:00,
2013-04-22 17:24:00,72.2,50.0,29.84,SW,229,3.0,11.0,46,0.00,,,0.00,weatherlink.com 1.10,2013-04-23 00:24:00,
2013-04-22 17:39:00,72.5,50.0,29.83,SSW,193,5.0,11.0,45,0.00,,,0.00,weatherlink.com 1.10,2013-04-23 00:39:00,
2013-04-22 17:54:00,71.0,52.0,29.84,SSE,162,7.0,12.0,51,0.00,,,0.00,weatherlink.com 1.10,2013-04-23 00:54:00,
2013-04-22 18:09:00,68.6,52.0,29.84,SSE,150,7.0,11.0,56,0.00,,,0.00,weatherlink.com 1.10,2013-04-23 01:09:00,
2013-04-22 18:24:00,67.2,52.0,29.84,WSW,248,6.0,12.0,59,0.00,,,0.00,weatherlink.com 1.10,2013-04-23 01:24:00,
2013-04-22 18:39:00,66.6,51.0,29.84,South,169,3.0,11.0,58,0.00,,,0.00,weatherlink.com 1.10,2013-04-23 01:39:00,
2013-04-22 18:54:00,65.7,52.0,29.83,SSE,152,6.0,9.0,61,0.00,,,0.00,weatherlink.com 1.10,2013-04-23 01:54:00,
2013-04-22 19:09:00,65.4,51.0,29.84,SSW,204,4.0,8.0,61,0.00,,,0.00,weatherlink.com 1.10,2013-04-23 02:09:00,
2013-04-22 19:24:00,65.1,52.0,29.84,SW,214,1.0,6.0,62,0.00,,,0.00,weatherlink.com 1.10,2013-04-23 02:24:00,
2013-04-22 19:39:00,64.0,51.0,29.84,SSE,148,1.0,4.0,63,0.00,,,0.00,weatherlink.com 1.10,2013-04-23 02:39:00,
2013-04-22 19:54:00,62.5,51.0,29.84,SSW,204,0.0,5.0,66,0.00,,,0.00,weatherlink.com 1.10,2013-04-23 02:54:00,
2013-04-22 20:09:00,61.5,51.0,29.84,SSE,149,1.0,3.0,68,0.00,,,0.00,weatherlink.com 1.10,2013-04-23 03:09:00,
2013-04-22 20:24:00,60.9,51.0,29.84,ESE,119,1.0,3.0,70,0.00,,,0.00,weatherlink.com 1.10,2013-04-23 03:24:00,
2013-04-22 20:39:00,61.1,51.0,29.85,WSW,243,0.0,2.0,70,0.00,,,0.00,weatherlink.com 1.10,2013-04-23 03:39:00,
2013-04-22 20:54:00,60.5,51.0,29.85,ESE,103,0.0,3.0,70,0.00,,,0.00,weatherlink.com 1.10,2013-04-23 03:54:00,
2013-04-22 21:09:00,60.0,51.0,29.85,SSE,165,0.0,0.0,72,0.00,,,0.00,weatherlink.com 1.10,2013-04-23 04:09:00,
2013-04-22 21:24:00,59.6,51.0,29.86,ESE,118,0.0,2.0,72,0.00,,,0.00,weatherlink.com 1.10,2013-04-23 04:24:00,
2013-04-22 21:39:00,59.0,51.0,29.86,WSW,252,1.0,2.0,74,0.00,,,0.00,weatherlink.com 1.10,2013-04-23 04:39:00,
2013-04-22 21:54:00,58.7,50.0,29.86,NNW,336,1.0,2.0,74,0.00,,,0.00,weatherlink.com 1.10,2013-04-23 04:54:00,
2013-04-22 22:09:00,57.6,50.0,29.86,NW,315,0.0,0.0,76,0.00,,,0.00,weatherlink.com 1.10,2013-04-23 05:09:00,
2013-04-22 22:24:00,56.8,50.0,29.86,WSW,238,0.0,0.0,79,0.00,,,0.00,weatherlink.com 1.10,2013-04-23 05:24:00,
2013-04-22 22:39:00,56.3,51.0,29.86,SSE,165,2.0,3.0,81,0.00,,,0.00,weatherlink.com 1.10,2013-04-23 05:39:00,
2013-04-22 22:54:00,55.6,51.0,29.86,SSE,165,0.0,5.0,83,0.00,,,0.00,weatherlink.com 1.10,2013-04-23 05:54:00,
2013-04-22 23:09:00,55.3,51.0,29.86,ESE,119,2.0,4.0,84,0.00,,,0.00,weatherlink.com 1.10,2013-04-23 06:09:00,
2013-04-22 23:24:00,55.1,50.0,29.86,SSW,198,0.0,1.0,83,0.00,,,0.00,weatherlink.com 1.10,2013-04-23 06:24:00,
2013-04-22 23:39:00,55.1,50.0,29.86,ESE,115,0.0,3.0,83,0.00,,,0.00,weatherlink.com 1.10,2013-04-23 06:39:00,
2013-04-22 23:54:00,55.3,49.0,29.86,ESE,113,0.0,1.0,80,0.00,,,0.00,weatherlink.com 1.10,2013-04-23 06:54:00,